Flugplatz Schleswig-Kropp (EDXC)

Hier findest Du alle Informationen zum Flugplatz Schleswig-Kropp (EDXC).

Informationen für Piloten zum Flugplatz Schleswig-Kropp

Hier findest Du alle relevanten Informationen, die Du als Pilot benötigst, um Schleswig-Kropp anzufliegen.

Flugplatz: Schleswig-Kropp ICAO-Code: EDXC
Frequenz Turm: 118,675 Mhz GAFOR Gebiet: 4
Frequenz Ground: 118,675 Mhz Mogas: ja
Platzrunde: S/N 600 ft Landegebühr: -
Platzhöhe: - Sunrise: 07:21 Uhr UTC
Pisten: 09/27 - 880 m x 30 m, GRAS Sunset: 15:02 Uhr UTC

Flugwetter am Flugplatz Schleswig-Kropp

Die METAR Information stammen aus EDHK (39.48 km entfernt).

METAR Code:
2020/11/21 10:50
EDHK 211050Z 21014G24KT 6000 -DZRA OVC005 05/04 Q1021

Flugschulen am Flugplatz Schleswig-Kropp

Am Flugplatz Schleswig-Kropp gibt es eine Flugschule.

Benachbarte Flugplätze und Flugschulen

Es gibt 11 weitere Flugplätze in einem Umkreis von 50 km um den Flugplatz Schleswig-Kropp.

Jetzt anmelden

Passwort vergessen

Umfrage Archiv

Wie viele Flugstunden seid Ihr in Eurer Pilotenausbildung geflogen?

31 - 40 Stunden
49.3 %
41 - 50 Stunden
23.9 %
exakt 30 Stunden
12.7 %
über 60 Stunden
8.5 %
51 - 60 Stunden
5.6 %
Stimmen: 71 | Diskussion
Anzeige: Roland Aircraft
Statistik Alle Mitglieder

Aktuell sind 34 Besucher online, davon 4 Mitglieder und 30 Gäste.


Mitglieder online:
francop  Eldim  Maraio  slintes 

Anzeige: VFR Sprechfunk Simulator


Anzeige: Pocket FMS